sensor_id;sensor_type;location;lat;lon;timestamp;temperature;humidity
21559;DHT22;10940;48.890;8.240;2022-09-09T00:00:56;17.50;99.90
21559;DHT22;10940;48.890;8.240;2022-09-09T00:11:19;17.50;99.90
21559;DHT22;10940;48.890;8.240;2022-09-09T00:13:48;17.50;99.90
21559;DHT22;10940;48.890;8.240;2022-09-09T00:16:19;17.40;99.90
21559;DHT22;10940;48.890;8.240;2022-09-09T00:21:19;17.40;99.90
21559;DHT22;10940;48.890;8.240;2022-09-09T00:23:53;17.40;99.90
21559;DHT22;10940;48.890;8.240;2022-09-09T00:26:38;17.40;99.90
21559;DHT22;10940;48.890;8.240;2022-09-09T00:31:37;17.40;99.90
21559;DHT22;10940;48.890;8.240;2022-09-09T00:34:13;17.40;99.90
21559;DHT22;10940;48.890;8.240;2022-09-09T00:36:40;17.50;99.90
21559;DHT22;10940;48.890;8.240;2022-09-09T00:39:23;17.50;99.90
21559;DHT22;10940;48.890;8.240;2022-09-09T00:42:13;17.50;99.90
21559;DHT22;10940;48.890;8.240;2022-09-09T00:44:53;17.60;99.90
21559;DHT22;10940;48.890;8.240;2022-09-09T00:50:10;17.60;99.90
21559;DHT22;10940;48.890;8.240;2022-09-09T00:58:14;17.70;99.90
21559;DHT22;10940;48.890;8.240;2022-09-09T01:00:51;17.80;99.90
21559;DHT22;10940;48.890;8.240;2022-09-09T01:03:35;17.80;99.90
21559;DHT22;10940;48.890;8.240;2022-09-09T01:17:17;17.70;99.90
21559;DHT22;10940;48.890;8.240;2022-09-09T01:19:49;17.60;99.90
21559;DHT22;10940;48.890;8.240;2022-09-09T01:27:32;17.00;99.90
21559;DHT22;10940;48.890;8.240;2022-09-09T01:29:58;16.90;99.90
21559;DHT22;10940;48.890;8.240;2022-09-09T01:32:45;16.70;99.90
21559;DHT22;10940;48.890;8.240;2022-09-09T01:35:27;16.60;99.90
21559;DHT22;10940;48.890;8.240;2022-09-09T01:37:55;16.60;99.90
21559;DHT22;10940;48.890;8.240;2022-09-09T01:40:21;16.40;99.90
21559;DHT22;10940;48.890;8.240;2022-09-09T01:42:47;16.30;99.90
21559;DHT22;10940;48.890;8.240;2022-09-09T01:45:13;16.20;99.90
21559;DHT22;10940;48.890;8.240;2022-09-09T01:47:39;16.10;99.90
21559;DHT22;10940;48.890;8.240;2022-09-09T01:50:07;16.00;99.90
21559;DHT22;10940;48.890;8.240;2022-09-09T01:52:35;15.90;99.90
21559;DHT22;10940;48.890;8.240;2022-09-09T01:55:01;15.80;99.90
21559;DHT22;10940;48.890;8.240;2022-09-09T01:57:35;15.70;99.90
21559;DHT22;10940;48.890;8.240;2022-09-09T02:00:08;15.80;99.90
21559;DHT22;10940;48.890;8.240;2022-09-09T02:02:36;15.80;99.90
21559;DHT22;10940;48.890;8.240;2022-09-09T02:05:39;15.70;99.90
21559;DHT22;10940;48.890;8.240;2022-09-09T02:08:07;15.70;99.90
21559;DHT22;10940;48.890;8.240;2022-09-09T02:10:42;15.70;99.90
21559;DHT22;10940;48.890;8.240;2022-09-09T02:13:13;15.80;99.90
21559;DHT22;10940;48.890;8.240;2022-09-09T02:15:52;15.70;99.90
21559;DHT22;10940;48.890;8.240;2022-09-09T02:18:38;15.70;99.90
21559;DHT22;10940;48.890;8.240;2022-09-09T02:21:06;15.80;99.90
21559;DHT22;10940;48.890;8.240;2022-09-09T02:23:34;15.80;99.90
21559;DHT22;10940;48.890;8.240;2022-09-09T02:26:01;15.70;99.90
21559;DHT22;10940;48.890;8.240;2022-09-09T02:28:30;15.70;99.90
21559;DHT22;10940;48.890;8.240;2022-09-09T02:30:57;15.70;99.90
21559;DHT22;10940;48.890;8.240;2022-09-09T02:33:27;15.80;99.90
21559;DHT22;10940;48.890;8.240;2022-09-09T02:35:53;15.80;99.90
21559;DHT22;10940;48.890;8.240;2022-09-09T02:38:24;15.70;99.90
21559;DHT22;10940;48.890;8.240;2022-09-09T02:40:51;15.70;99.90
21559;DHT22;10940;48.890;8.240;2022-09-09T02:43:17;15.60;99.90
21559;DHT22;10940;48.890;8.240;2022-09-09T02:46:19;15.60;99.90
21559;DHT22;10940;48.890;8.240;2022-09-09T02:48:59;15.60;99.90
21559;DHT22;10940;48.890;8.240;2022-09-09T02:51:50;15.50;99.90
21559;DHT22;10940;48.890;8.240;2022-09-09T02:56:52;15.50;99.90
21559;DHT22;10940;48.890;8.240;2022-09-09T02:59:20;15.50;99.90
21559;DHT22;10940;48.890;8.240;2022-09-09T03:01:46;15.60;99.90
21559;DHT22;10940;48.890;8.240;2022-09-09T03:04:12;15.50;99.90
21559;DHT22;10940;48.890;8.240;2022-09-09T03:06:38;15.40;99.90
21559;DHT22;10940;48.890;8.240;2022-09-09T03:09:03;15.50;99.90
21559;DHT22;10940;48.890;8.240;2022-09-09T03:11:29;15.60;99.90
21559;DHT22;10940;48.890;8.240;2022-09-09T03:13:55;15.50;99.90
21559;DHT22;10940;48.890;8.240;2022-09-09T03:16:22;15.60;99.90
21559;DHT22;10940;48.890;8.240;2022-09-09T03:18:48;15.50;99.90
21559;DHT22;10940;48.890;8.240;2022-09-09T03:21:13;15.50;99.90
21559;DHT22;10940;48.890;8.240;2022-09-09T03:23:39;15.50;99.90
21559;DHT22;10940;48.890;8.240;2022-09-09T03:26:05;15.50;99.90
21559;DHT22;10940;48.890;8.240;2022-09-09T03:28:31;15.50;99.90
21559;DHT22;10940;48.890;8.240;2022-09-09T03:31:00;15.50;99.90
21559;DHT22;10940;48.890;8.240;2022-09-09T03:33:26;15.60;99.90
21559;DHT22;10940;48.890;8.240;2022-09-09T03:35:53;15.60;99.90
21559;DHT22;10940;48.890;8.240;2022-09-09T03:38:18;15.60;99.90
21559;DHT22;10940;48.890;8.240;2022-09-09T03:40:55;15.60;99.90
21559;DHT22;10940;48.890;8.240;2022-09-09T03:43:24;15.50;99.90
21559;DHT22;10940;48.890;8.240;2022-09-09T03:45:51;15.60;99.90
21559;DHT22;10940;48.890;8.240;2022-09-09T03:48:17;15.50;99.90
21559;DHT22;10940;48.890;8.240;2022-09-09T03:50:46;15.50;99.90
21559;DHT22;10940;48.890;8.240;2022-09-09T03:53:12;15.50;99.90
21559;DHT22;10940;48.890;8.240;2022-09-09T03:55:38;15.50;99.90
21559;DHT22;10940;48.890;8.240;2022-09-09T03:58:04;15.50;99.90
21559;DHT22;10940;48.890;8.240;2022-09-09T04:00:29;15.60;99.90
21559;DHT22;10940;48.890;8.240;2022-09-09T04:02:55;15.60;99.90
21559;DHT22;10940;48.890;8.240;2022-09-09T04:05:22;15.60;99.90
21559;DHT22;10940;48.890;8.240;2022-09-09T04:07:47;15.60;99.90
21559;DHT22;10940;48.890;8.240;2022-09-09T04:10:13;15.60;99.90
21559;DHT22;10940;48.890;8.240;2022-09-09T04:12:38;15.60;99.90
21559;DHT22;10940;48.890;8.240;2022-09-09T04:15:05;15.60;99.90
21559;DHT22;10940;48.890;8.240;2022-09-09T04:17:30;15.60;99.90
21559;DHT22;10940;48.890;8.240;2022-09-09T04:19:56;15.60;99.90
21559;DHT22;10940;48.890;8.240;2022-09-09T04:22:22;15.70;99.90
21559;DHT22;10940;48.890;8.240;2022-09-09T04:24:47;15.70;99.90
21559;DHT22;10940;48.890;8.240;2022-09-09T04:27:13;15.70;99.90
21559;DHT22;10940;48.890;8.240;2022-09-09T04:29:38;15.70;99.90
21559;DHT22;10940;48.890;8.240;2022-09-09T04:32:04;15.70;99.90
21559;DHT22;10940;48.890;8.240;2022-09-09T04:34:30;15.70;99.90
21559;DHT22;10940;48.890;8.240;2022-09-09T04:36:56;15.80;99.90
21559;DHT22;10940;48.890;8.240;2022-09-09T04:39:22;15.80;99.90
21559;DHT22;10940;48.890;8.240;2022-09-09T04:41:48;15.80;99.90
21559;DHT22;10940;48.890;8.240;2022-09-09T04:44:13;15.80;99.90
21559;DHT22;10940;48.890;8.240;2022-09-09T04:46:39;15.80;99.90
21559;DHT22;10940;48.890;8.240;2022-09-09T04:49:06;15.80;99.90
21559;DHT22;10940;48.890;8.240;2022-09-09T04:51:32;15.80;99.90
21559;DHT22;10940;48.890;8.240;2022-09-09T04:53:58;15.80;99.90
21559;DHT22;10940;48.890;8.240;2022-09-09T04:56:24;15.90;99.90
21559;DHT22;10940;48.890;8.240;2022-09-09T04:58:52;15.90;99.90
21559;DHT22;10940;48.890;8.240;2022-09-09T05:01:21;15.80;99.90
21559;DHT22;10940;48.890;8.240;2022-09-09T05:03:48;15.90;99.90
21559;DHT22;10940;48.890;8.240;2022-09-09T05:06:16;15.90;99.90
21559;DHT22;10940;48.890;8.240;2022-09-09T05:08:43;16.00;99.90
21559;DHT22;10940;48.890;8.240;2022-09-09T05:11:22;16.00;99.90
21559;DHT22;10940;48.890;8.240;2022-09-09T05:13:50;16.00;99.90
21559;DHT22;10940;48.890;8.240;2022-09-09T05:16:16;16.00;99.90
21559;DHT22;10940;48.890;8.240;2022-09-09T05:18:42;16.10;99.90
21559;DHT22;10940;48.890;8.240;2022-09-09T05:21:08;16.00;99.90
21559;DHT22;10940;48.890;8.240;2022-09-09T05:23:34;16.00;99.90
21559;DHT22;10940;48.890;8.240;2022-09-09T05:26:01;16.10;99.90
21559;DHT22;10940;48.890;8.240;2022-09-09T05:28:27;16.00;99.90
21559;DHT22;10940;48.890;8.240;2022-09-09T05:31:04;16.10;99.90
21559;DHT22;10940;48.890;8.240;2022-09-09T05:33:31;16.00;99.90
21559;DHT22;10940;48.890;8.240;2022-09-09T05:35:58;16.00;99.90
21559;DHT22;10940;48.890;8.240;2022-09-09T05:38:24;15.90;99.90
21559;DHT22;10940;48.890;8.240;2022-09-09T05:40:51;15.90;99.90
21559;DHT22;10940;48.890;8.240;2022-09-09T05:43:18;15.80;99.90
21559;DHT22;10940;48.890;8.240;2022-09-09T05:45:43;15.80;99.90
21559;DHT22;10940;48.890;8.240;2022-09-09T05:48:09;15.80;99.90
21559;DHT22;10940;48.890;8.240;2022-09-09T05:50:34;15.80;99.90
21559;DHT22;10940;48.890;8.240;2022-09-09T05:53:00;15.80;99.90
21559;DHT22;10940;48.890;8.240;2022-09-09T05:55:26;15.90;99.90
21559;DHT22;10940;48.890;8.240;2022-09-09T05:57:52;15.90;99.90
21559;DHT22;10940;48.890;8.240;2022-09-09T06:00:18;15.90;99.90
21559;DHT22;10940;48.890;8.240;2022-09-09T06:02:43;16.00;99.90
21559;DHT22;10940;48.890;8.240;2022-09-09T06:05:09;16.00;99.90
21559;DHT22;10940;48.890;8.240;2022-09-09T06:07:36;16.10;99.90
21559;DHT22;10940;48.890;8.240;2022-09-09T06:10:02;16.20;99.90
21559;DHT22;10940;48.890;8.240;2022-09-09T06:12:28;16.20;99.90
21559;DHT22;10940;48.890;8.240;2022-09-09T06:14:54;16.20;99.90
21559;DHT22;10940;48.890;8.240;2022-09-09T06:17:19;16.30;99.90
21559;DHT22;10940;48.890;8.240;2022-09-09T06:19:45;16.30;99.90
21559;DHT22;10940;48.890;8.240;2022-09-09T06:22:10;16.30;99.90
21559;DHT22;10940;48.890;8.240;2022-09-09T06:24:37;16.40;99.90
21559;DHT22;10940;48.890;8.240;2022-09-09T06:27:04;16.40;99.90
21559;DHT22;10940;48.890;8.240;2022-09-09T06:29:30;16.50;99.90
21559;DHT22;10940;48.890;8.240;2022-09-09T06:31:56;16.50;99.90
21559;DHT22;10940;48.890;8.240;2022-09-09T06:34:22;16.50;99.90
21559;DHT22;10940;48.890;8.240;2022-09-09T06:36:47;16.60;99.90
21559;DHT22;10940;48.890;8.240;2022-09-09T06:39:13;16.70;99.90
21559;DHT22;10940;48.890;8.240;2022-09-09T06:41:40;16.70;99.90
21559;DHT22;10940;48.890;8.240;2022-09-09T06:44:07;16.70;99.90
21559;DHT22;10940;48.890;8.240;2022-09-09T06:46:33;16.80;99.90
21559;DHT22;10940;48.890;8.240;2022-09-09T06:49:00;16.90;99.90
21559;DHT22;10940;48.890;8.240;2022-09-09T06:51:31;17.00;99.90
21559;DHT22;10940;48.890;8.240;2022-09-09T06:53:58;17.00;99.90
21559;DHT22;10940;48.890;8.240;2022-09-09T06:56:35;17.00;99.90
21559;DHT22;10940;48.890;8.240;2022-09-09T06:59:03;17.10;99.90
21559;DHT22;10940;48.890;8.240;2022-09-09T07:01:33;17.20;99.90
21559;DHT22;10940;48.890;8.240;2022-09-09T07:03:59;17.30;99.90
21559;DHT22;10940;48.890;8.240;2022-09-09T07:06:31;17.30;99.90
21559;DHT22;10940;48.890;8.240;2022-09-09T07:09:02;17.40;99.90
21559;DHT22;10940;48.890;8.240;2022-09-09T07:11:31;17.40;99.90
21559;DHT22;10940;48.890;8.240;2022-09-09T07:13:59;17.50;99.90
21559;DHT22;10940;48.890;8.240;2022-09-09T07:16:25;17.50;99.90
21559;DHT22;10940;48.890;8.240;2022-09-09T07:18:51;17.50;99.90
21559;DHT22;10940;48.890;8.240;2022-09-09T07:21:18;17.60;99.90
21559;DHT22;10940;48.890;8.240;2022-09-09T07:23:46;17.70;99.90
21559;DHT22;10940;48.890;8.240;2022-09-09T07:26:17;17.70;99.90
21559;DHT22;10940;48.890;8.240;2022-09-09T07:28:44;17.90;99.90
21559;DHT22;10940;48.890;8.240;2022-09-09T07:31:17;18.00;99.90
21559;DHT22;10940;48.890;8.240;2022-09-09T07:33:44;18.10;99.90
21559;DHT22;10940;48.890;8.240;2022-09-09T07:36:13;18.20;99.90
21559;DHT22;10940;48.890;8.240;2022-09-09T07:38:40;18.40;99.90
21559;DHT22;10940;48.890;8.240;2022-09-09T07:41:08;18.40;99.90
21559;DHT22;10940;48.890;8.240;2022-09-09T07:43:38;18.50;99.90
21559;DHT22;10940;48.890;8.240;2022-09-09T07:46:04;18.60;99.90
21559;DHT22;10940;48.890;8.240;2022-09-09T07:48:31;18.70;99.90
21559;DHT22;10940;48.890;8.240;2022-09-09T07:51:14;18.80;99.90
21559;DHT22;10940;48.890;8.240;2022-09-09T07:53:46;18.90;99.90
21559;DHT22;10940;48.890;8.240;2022-09-09T07:56:17;18.90;99.90
21559;DHT22;10940;48.890;8.240;2022-09-09T07:58:45;19.00;99.90
21559;DHT22;10940;48.890;8.240;2022-09-09T08:01:26;19.00;99.90
21559;DHT22;10940;48.890;8.240;2022-09-09T08:04:00;19.00;99.90
21559;DHT22;10940;48.890;8.240;2022-09-09T08:06:33;19.10;99.90
21559;DHT22;10940;48.890;8.240;2022-09-09T08:08:59;19.10;99.90
21559;DHT22;10940;48.890;8.240;2022-09-09T08:11:27;19.20;99.90
21559;DHT22;10940;48.890;8.240;2022-09-09T08:13:53;19.20;99.90
21559;DHT22;10940;48.890;8.240;2022-09-09T08:16:23;19.10;99.90
21559;DHT22;10940;48.890;8.240;2022-09-09T08:18:50;19.00;99.90
21559;DHT22;10940;48.890;8.240;2022-09-09T08:21:25;19.00;99.90
21559;DHT22;10940;48.890;8.240;2022-09-09T08:23:52;18.70;99.90
21559;DHT22;10940;48.890;8.240;2022-09-09T08:26:21;18.50;99.90
21559;DHT22;10940;48.890;8.240;2022-09-09T08:28:48;18.30;99.90
21559;DHT22;10940;48.890;8.240;2022-09-09T08:31:18;18.30;99.90
21559;DHT22;10940;48.890;8.240;2022-09-09T08:33:44;18.20;99.90
21559;DHT22;10940;48.890;8.240;2022-09-09T08:36:16;18.20;99.90
21559;DHT22;10940;48.890;8.240;2022-09-09T08:38:42;18.20;99.90
21559;DHT22;10940;48.890;8.240;2022-09-09T08:43:50;18.20;99.90
21559;DHT22;10940;48.890;8.240;2022-09-09T08:49:45;18.10;99.90
21559;DHT22;10940;48.890;8.240;2022-09-09T08:52:41;18.10;99.90
21559;DHT22;10940;48.890;8.240;2022-09-09T08:58:12;18.10;99.90
21559;DHT22;10940;48.890;8.240;2022-09-09T09:12:00;18.10;99.90
21559;DHT22;10940;48.890;8.240;2022-09-09T09:14:29;18.20;99.90
21559;DHT22;10940;48.890;8.240;2022-09-09T09:17:01;18.20;99.90
21559;DHT22;10940;48.890;8.240;2022-09-09T09:19:28;18.30;99.90
21559;DHT22;10940;48.890;8.240;2022-09-09T09:27:32;18.50;99.90
21559;DHT22;10940;48.890;8.240;2022-09-09T09:30:00;18.60;99.90
21559;DHT22;10940;48.890;8.240;2022-09-09T09:32:29;18.70;99.90
21559;DHT22;10940;48.890;8.240;2022-09-09T09:34:58;18.70;99.90
21559;DHT22;10940;48.890;8.240;2022-09-09T09:37:32;18.70;99.90
21559;DHT22;10940;48.890;8.240;2022-09-09T09:40:17;18.70;99.90
21559;DHT22;10940;48.890;8.240;2022-09-09T09:43:03;18.70;99.90
21559;DHT22;10940;48.890;8.240;2022-09-09T09:45:35;18.70;99.90
21559;DHT22;10940;48.890;8.240;2022-09-09T09:48:05;18.80;99.90
21559;DHT22;10940;48.890;8.240;2022-09-09T09:50:32;18.80;99.90
21559;DHT22;10940;48.890;8.240;2022-09-09T09:53:04;18.90;99.90
21559;DHT22;10940;48.890;8.240;2022-09-09T09:55:31;19.00;99.90
21559;DHT22;10940;48.890;8.240;2022-09-09T09:58:06;19.20;99.90
21559;DHT22;10940;48.890;8.240;2022-09-09T10:00:51;19.40;99.90
21559;DHT22;10940;48.890;8.240;2022-09-09T10:03:27;19.60;99.90
21559;DHT22;10940;48.890;8.240;2022-09-09T10:05:53;19.70;99.90
21559;DHT22;10940;48.890;8.240;2022-09-09T10:08:19;19.80;99.90
21559;DHT22;10940;48.890;8.240;2022-09-09T10:16:28;19.90;99.90
21559;DHT22;10940;48.890;8.240;2022-09-09T10:19:07;19.90;99.90
21559;DHT22;10940;48.890;8.240;2022-09-09T10:22:05;20.00;99.90
21559;DHT22;10940;48.890;8.240;2022-09-09T10:30:19;20.10;99.90
21559;DHT22;10940;48.890;8.240;2022-09-09T10:38:20;20.50;99.90
21559;DHT22;10940;48.890;8.240;2022-09-09T10:48:42;20.90;99.90
21559;DHT22;10940;48.890;8.240;2022-09-09T10:51:40;21.00;99.90
21559;DHT22;10940;48.890;8.240;2022-09-09T10:57:33;21.00;99.90
21559;DHT22;10940;48.890;8.240;2022-09-09T10:59:55;21.00;99.90
21559;DHT22;10940;48.890;8.240;2022-09-09T11:02:28;21.10;99.90
21559;DHT22;10940;48.890;8.240;2022-09-09T11:05:05;21.10;99.90
21559;DHT22;10940;48.890;8.240;2022-09-09T11:07:47;21.00;99.90
21559;DHT22;10940;48.890;8.240;2022-09-09T11:10:22;20.90;99.90
21559;DHT22;10940;48.890;8.240;2022-09-09T11:12:52;20.80;99.90
21559;DHT22;10940;48.890;8.240;2022-09-09T11:15:56;20.70;99.90
21559;DHT22;10940;48.890;8.240;2022-09-09T11:18:28;20.60;99.90
21559;DHT22;10940;48.890;8.240;2022-09-09T11:20:59;20.50;99.90
21559;DHT22;10940;48.890;8.240;2022-09-09T11:23:41;20.40;99.90
21559;DHT22;10940;48.890;8.240;2022-09-09T11:26:15;20.30;99.90
21559;DHT22;10940;48.890;8.240;2022-09-09T11:29:23;20.10;99.90
21559;DHT22;10940;48.890;8.240;2022-09-09T11:42:23;20.80;99.90
21559;DHT22;10940;48.890;8.240;2022-09-09T11:44:49;21.20;99.90
21559;DHT22;10940;48.890;8.240;2022-09-09T11:47:28;21.60;99.90
21559;DHT22;10940;48.890;8.240;2022-09-09T11:52:44;22.00;99.90
21559;DHT22;10940;48.890;8.240;2022-09-09T11:55:34;22.20;99.90
21559;DHT22;10940;48.890;8.240;2022-09-09T12:00:38;22.70;99.90
21559;DHT22;10940;48.890;8.240;2022-09-09T12:03:06;22.70;99.90
21559;DHT22;10940;48.890;8.240;2022-09-09T12:05:51;22.60;99.90
21559;DHT22;10940;48.890;8.240;2022-09-09T12:08:29;22.40;99.90
21559;DHT22;10940;48.890;8.240;2022-09-09T12:10:57;22.40;99.90
21559;DHT22;10940;48.890;8.240;2022-09-09T12:13:26;22.30;99.90
21559;DHT22;10940;48.890;8.240;2022-09-09T12:15:54;22.20;99.90
21559;DHT22;10940;48.890;8.240;2022-09-09T12:18:34;22.30;99.90
21559;DHT22;10940;48.890;8.240;2022-09-09T12:21:25;22.70;99.90
21559;DHT22;10940;48.890;8.240;2022-09-09T12:24:10;23.10;99.90
21559;DHT22;10940;48.890;8.240;2022-09-09T12:32:29;23.20;99.90
21559;DHT22;10940;48.890;8.240;2022-09-09T12:35:10;22.90;99.90
21559;DHT22;10940;48.890;8.240;2022-09-09T12:37:55;22.60;99.90
21559;DHT22;10940;48.890;8.240;2022-09-09T12:40:31;21.70;99.90
21559;DHT22;10940;48.890;8.240;2022-09-09T12:43:00;20.90;99.90
21559;DHT22;10940;48.890;8.240;2022-09-09T12:45:29;20.70;99.90
21559;DHT22;10940;48.890;8.240;2022-09-09T12:48:05;20.50;99.90
21559;DHT22;10940;48.890;8.240;2022-09-09T12:50:43;20.40;99.90
21559;DHT22;10940;48.890;8.240;2022-09-09T12:53:19;20.40;99.90
21559;DHT22;10940;48.890;8.240;2022-09-09T12:55:57;20.20;99.90
21559;DHT22;10940;48.890;8.240;2022-09-09T12:58:23;20.00;99.90
21559;DHT22;10940;48.890;8.240;2022-09-09T13:00:52;19.90;99.90
21559;DHT22;10940;48.890;8.240;2022-09-09T13:03:20;19.80;99.90
21559;DHT22;10940;48.890;8.240;2022-09-09T13:05:50;19.70;99.90
21559;DHT22;10940;48.890;8.240;2022-09-09T13:08:17;19.50;99.90
21559;DHT22;10940;48.890;8.240;2022-09-09T13:10:56;19.30;99.90
21559;DHT22;10940;48.890;8.240;2022-09-09T13:13:38;19.30;99.90
21559;DHT22;10940;48.890;8.240;2022-09-09T13:16:06;19.30;99.90
21559;DHT22;10940;48.890;8.240;2022-09-09T13:18:37;19.30;99.90
21559;DHT22;10940;48.890;8.240;2022-09-09T13:21:06;19.30;99.90
21559;DHT22;10940;48.890;8.240;2022-09-09T13:23:36;19.40;99.90
21559;DHT22;10940;48.890;8.240;2022-09-09T13:26:25;19.40;99.90
21559;DHT22;10940;48.890;8.240;2022-09-09T13:28:52;19.40;99.90
21559;DHT22;10940;48.890;8.240;2022-09-09T13:31:29;19.40;99.90
21559;DHT22;10940;48.890;8.240;2022-09-09T13:33:55;19.40;99.90
21559;DHT22;10940;48.890;8.240;2022-09-09T13:36:32;19.60;99.90
21559;DHT22;10940;48.890;8.240;2022-09-09T13:39:02;19.90;99.90
21559;DHT22;10940;48.890;8.240;2022-09-09T13:41:43;20.20;99.90
21559;DHT22;10940;48.890;8.240;2022-09-09T13:44:36;20.50;99.90
21559;DHT22;10940;48.890;8.240;2022-09-09T13:49:38;21.50;99.90
21559;DHT22;10940;48.890;8.240;2022-09-09T13:54:32;22.10;99.90
21559;DHT22;10940;48.890;8.240;2022-09-09T13:56:58;22.30;99.90
21559;DHT22;10940;48.890;8.240;2022-09-09T13:59:23;22.40;99.90
21559;DHT22;10940;48.890;8.240;2022-09-09T14:01:49;22.60;99.90
21559;DHT22;10940;48.890;8.240;2022-09-09T14:04:17;22.70;99.90
21559;DHT22;10940;48.890;8.240;2022-09-09T14:06:44;22.90;99.90
21559;DHT22;10940;48.890;8.240;2022-09-09T14:09:12;22.80;99.90
21559;DHT22;10940;48.890;8.240;2022-09-09T14:11:39;22.40;99.90
21559;DHT22;10940;48.890;8.240;2022-09-09T14:14:05;22.10;99.90
21559;DHT22;10940;48.890;8.240;2022-09-09T14:16:31;21.90;99.90
21559;DHT22;10940;48.890;8.240;2022-09-09T14:18:57;21.80;99.90
21559;DHT22;10940;48.890;8.240;2022-09-09T14:21:23;21.70;99.90
21559;DHT22;10940;48.890;8.240;2022-09-09T14:23:49;21.50;99.90
21559;DHT22;10940;48.890;8.240;2022-09-09T14:26:14;21.50;99.90
21559;DHT22;10940;48.890;8.240;2022-09-09T14:28:40;21.40;99.90
21559;DHT22;10940;48.890;8.240;2022-09-09T14:31:06;21.20;99.90
21559;DHT22;10940;48.890;8.240;2022-09-09T14:33:32;21.20;99.90
21559;DHT22;10940;48.890;8.240;2022-09-09T14:35:59;21.20;99.90
21559;DHT22;10940;48.890;8.240;2022-09-09T14:38:29;21.10;99.90
21559;DHT22;10940;48.890;8.240;2022-09-09T14:40:55;21.00;99.90
21559;DHT22;10940;48.890;8.240;2022-09-09T14:43:21;21.00;99.90
21559;DHT22;10940;48.890;8.240;2022-09-09T14:45:47;21.00;99.90
21559;DHT22;10940;48.890;8.240;2022-09-09T14:48:17;20.70;99.90
21559;DHT22;10940;48.890;8.240;2022-09-09T14:50:42;20.40;99.90
21559;DHT22;10940;48.890;8.240;2022-09-09T14:53:09;20.30;99.90
21559;DHT22;10940;48.890;8.240;2022-09-09T14:55:35;20.10;99.90
21559;DHT22;10940;48.890;8.240;2022-09-09T14:58:01;20.00;99.90
21559;DHT22;10940;48.890;8.240;2022-09-09T15:00:26;19.80;99.90
21559;DHT22;10940;48.890;8.240;2022-09-09T15:02:53;19.70;99.90
21559;DHT22;10940;48.890;8.240;2022-09-09T15:05:19;19.60;99.90
21559;DHT22;10940;48.890;8.240;2022-09-09T15:07:44;19.60;99.90
21559;DHT22;10940;48.890;8.240;2022-09-09T15:10:10;19.60;99.90
21559;DHT22;10940;48.890;8.240;2022-09-09T15:12:36;19.60;99.90
21559;DHT22;10940;48.890;8.240;2022-09-09T15:15:03;19.60;99.90
21559;DHT22;10940;48.890;8.240;2022-09-09T15:17:28;19.70;99.90
21559;DHT22;10940;48.890;8.240;2022-09-09T15:19:55;19.70;99.90
21559;DHT22;10940;48.890;8.240;2022-09-09T15:22:21;19.80;99.90
21559;DHT22;10940;48.890;8.240;2022-09-09T15:24:46;19.90;99.90
21559;DHT22;10940;48.890;8.240;2022-09-09T15:27:12;20.20;99.90
21559;DHT22;10940;48.890;8.240;2022-09-09T15:29:40;20.50;99.90
21559;DHT22;10940;48.890;8.240;2022-09-09T15:32:06;20.90;99.90
21559;DHT22;10940;48.890;8.240;2022-09-09T15:34:31;21.10;99.90
21559;DHT22;10940;48.890;8.240;2022-09-09T15:36:57;21.20;99.90
21559;DHT22;10940;48.890;8.240;2022-09-09T15:39:22;21.20;99.90
21559;DHT22;10940;48.890;8.240;2022-09-09T15:41:48;21.10;99.90
21559;DHT22;10940;48.890;8.240;2022-09-09T15:44:14;21.00;99.90
21559;DHT22;10940;48.890;8.240;2022-09-09T15:46:48;20.80;99.90
21559;DHT22;10940;48.890;8.240;2022-09-09T15:49:19;20.70;99.90
21559;DHT22;10940;48.890;8.240;2022-09-09T15:51:56;20.50;99.90
21559;DHT22;10940;48.890;8.240;2022-09-09T15:54:31;20.30;99.90
21559;DHT22;10940;48.890;8.240;2022-09-09T15:57:00;19.90;99.90
21559;DHT22;10940;48.890;8.240;2022-09-09T15:59:28;19.70;99.90
21559;DHT22;10940;48.890;8.240;2022-09-09T16:01:54;19.50;99.90
21559;DHT22;10940;48.890;8.240;2022-09-09T16:04:21;19.30;99.90
21559;DHT22;10940;48.890;8.240;2022-09-09T16:06:51;19.00;99.90
21559;DHT22;10940;48.890;8.240;2022-09-09T16:09:18;18.90;99.90
21559;DHT22;10940;48.890;8.240;2022-09-09T16:11:44;18.80;99.90
21559;DHT22;10940;48.890;8.240;2022-09-09T16:14:10;18.80;99.90
21559;DHT22;10940;48.890;8.240;2022-09-09T16:16:37;18.80;99.90
21559;DHT22;10940;48.890;8.240;2022-09-09T16:19:07;18.80;99.90
21559;DHT22;10940;48.890;8.240;2022-09-09T16:21:37;18.80;99.90
21559;DHT22;10940;48.890;8.240;2022-09-09T16:24:06;18.80;99.90
21559;DHT22;10940;48.890;8.240;2022-09-09T16:26:33;18.80;99.90
21559;DHT22;10940;48.890;8.240;2022-09-09T16:29:00;18.60;99.90
21559;DHT22;10940;48.890;8.240;2022-09-09T16:31:27;18.60;99.90
21559;DHT22;10940;48.890;8.240;2022-09-09T16:33:54;18.70;99.90
21559;DHT22;10940;48.890;8.240;2022-09-09T16:36:22;18.70;99.90
21559;DHT22;10940;48.890;8.240;2022-09-09T16:38:48;18.70;99.90
21559;DHT22;10940;48.890;8.240;2022-09-09T16:41:17;18.70;99.90
21559;DHT22;10940;48.890;8.240;2022-09-09T16:43:43;18.60;99.90
21559;DHT22;10940;48.890;8.240;2022-09-09T16:46:27;18.50;99.90
21559;DHT22;10940;48.890;8.240;2022-09-09T16:48:55;18.40;99.90
21559;DHT22;10940;48.890;8.240;2022-09-09T16:51:23;18.30;99.90
21559;DHT22;10940;48.890;8.240;2022-09-09T16:53:49;18.20;99.90
21559;DHT22;10940;48.890;8.240;2022-09-09T16:56:21;18.00;99.90
21559;DHT22;10940;48.890;8.240;2022-09-09T16:58:51;18.00;99.90
21559;DHT22;10940;48.890;8.240;2022-09-09T17:01:17;18.00;99.90
21559;DHT22;10940;48.890;8.240;2022-09-09T17:03:44;18.00;99.90
21559;DHT22;10940;48.890;8.240;2022-09-09T17:06:14;18.00;99.90
21559;DHT22;10940;48.890;8.240;2022-09-09T17:08:40;18.00;99.90
21559;DHT22;10940;48.890;8.240;2022-09-09T17:11:17;18.10;99.90
21559;DHT22;10940;48.890;8.240;2022-09-09T17:13:45;18.10;99.90
21559;DHT22;10940;48.890;8.240;2022-09-09T17:16:11;18.10;99.90
21559;DHT22;10940;48.890;8.240;2022-09-09T17:18:37;18.00;99.90
21559;DHT22;10940;48.890;8.240;2022-09-09T17:21:09;18.00;99.90
21559;DHT22;10940;48.890;8.240;2022-09-09T17:23:36;18.00;99.90
21559;DHT22;10940;48.890;8.240;2022-09-09T17:26:05;18.00;99.90
21559;DHT22;10940;48.890;8.240;2022-09-09T17:28:33;18.00;99.90
21559;DHT22;10940;48.890;8.240;2022-09-09T17:30:59;18.00;99.90
21559;DHT22;10940;48.890;8.240;2022-09-09T17:33:27;17.90;99.90
21559;DHT22;10940;48.890;8.240;2022-09-09T17:35:59;18.00;99.90
21559;DHT22;10940;48.890;8.240;2022-09-09T17:38:27;18.00;99.90
21559;DHT22;10940;48.890;8.240;2022-09-09T17:41:03;18.00;99.90
21559;DHT22;10940;48.890;8.240;2022-09-09T17:43:29;17.90;99.90
21559;DHT22;10940;48.890;8.240;2022-09-09T17:46:09;17.90;99.90
21559;DHT22;10940;48.890;8.240;2022-09-09T17:48:35;17.80;99.90